sensor_id;sensor_type;location;lat;lon;timestamp;P1;P2;P0
56360;PMS7003;42611;51.132;13.588;2023-06-10T00:00:02;23.5;23.0;
56360;PMS7003;42611;51.132;13.588;2023-06-10T00:05:07;23.6;23.0;
56360;PMS7003;42611;51.132;13.588;2023-06-10T00:10:01;23.2;22.8;
56360;PMS7003;42611;51.132;13.588;2023-06-10T00:15:02;23.8;23.0;
56360;PMS7003;42611;51.132;13.588;2023-06-10T00:20:01;24.1;23.2;
56360;PMS7003;42611;51.132;13.588;2023-06-10T00:25:03;24.2;23.6;
56360;PMS7003;42611;51.132;13.588;2023-06-10T00:31:01;24.9;24.0;
56360;PMS7003;42611;51.132;13.588;2023-06-10T00:36:01;26.2;25.0;
56360;PMS7003;42611;51.132;13.588;2023-06-10T00:41:01;26.5;25.5;
56360;PMS7003;42611;51.132;13.588;2023-06-10T00:46:02;26.7;25.5;
56360;PMS7003;42611;51.132;13.588;2023-06-10T00:51:06;26.6;25.4;
56360;PMS7003;42611;51.132;13.588;2023-06-10T00:56:07;26.4;25.3;
56360;PMS7003;42611;51.132;13.588;2023-06-10T01:01:07;24.7;24.0;
56360;PMS7003;42611;51.132;13.588;2023-06-10T01:06:09;24.6;23.7;
56360;PMS7003;42611;51.132;13.588;2023-06-10T01:11:01;24.3;23.6;
56360;PMS7003;42611;51.132;13.588;2023-06-10T01:16:06;24.5;23.8;
56360;PMS7003;42611;51.132;13.588;2023-06-10T01:21:07;25.2;24.1;
56360;PMS7003;42611;51.132;13.588;2023-06-10T01:26:08;26.4;25.2;
56360;PMS7003;42611;51.132;13.588;2023-06-10T01:32:08;27.0;26.1;
56360;PMS7003;42611;51.132;13.588;2023-06-10T01:36:07;27.8;26.7;
56360;PMS7003;42611;51.132;13.588;2023-06-10T01:41:07;28.5;27.4;
56360;PMS7003;42611;51.132;13.588;2023-06-10T01:46:06;27.4;26.9;
56360;PMS7003;42611;51.132;13.588;2023-06-10T01:51:06;29.1;27.8;
56360;PMS7003;42611;51.132;13.588;2023-06-10T01:56:06;29.4;27.8;
56360;PMS7003;42611;51.132;13.588;2023-06-10T02:01:07;29.5;28.0;
56360;PMS7003;42611;51.132;13.588;2023-06-10T02:06:07;30.2;28.3;
56360;PMS7003;42611;51.132;13.588;2023-06-10T02:11:06;31.5;28.7;
56360;PMS7003;42611;51.132;13.588;2023-06-10T02:16:01;30.8;28.5;
56360;PMS7003;42611;51.132;13.588;2023-06-10T02:21:01;31.0;28.4;
56360;PMS7003;42611;51.132;13.588;2023-06-10T02:26:01;30.4;28.1;
56360;PMS7003;42611;51.132;13.588;2023-06-10T02:36:02;29.3;28.3;
56360;PMS7003;42611;51.132;13.588;2023-06-10T02:41:06;29.9;28.2;
56360;PMS7003;42611;51.132;13.588;2023-06-10T02:46:06;31.6;29.1;
56360;PMS7003;42611;51.132;13.588;2023-06-10T02:51:07;32.4;29.4;
56360;PMS7003;42611;51.132;13.588;2023-06-10T02:56:06;33.4;29.8;
56360;PMS7003;42611;51.132;13.588;2023-06-10T03:01:01;35.6;30.5;
56360;PMS7003;42611;51.132;13.588;2023-06-10T03:06:06;36.8;31.4;
56360;PMS7003;42611;51.132;13.588;2023-06-10T03:11:01;36.1;31.3;
56360;PMS7003;42611;51.132;13.588;2023-06-10T03:16:06;37.5;32.2;
56360;PMS7003;42611;51.132;13.588;2023-06-10T03:21:01;37.4;32.3;
56360;PMS7003;42611;51.132;13.588;2023-06-10T03:26:01;36.8;32.4;
56360;PMS7003;42611;51.132;13.588;2023-06-10T03:31:01;35.5;31.8;
56360;PMS7003;42611;51.132;13.588;2023-06-10T03:36:01;36.8;32.5;
56360;PMS7003;42611;51.132;13.588;2023-06-10T03:41:01;37.2;32.9;
56360;PMS7003;42611;51.132;13.588;2023-06-10T03:46:01;37.4;32.7;
56360;PMS7003;42611;51.132;13.588;2023-06-10T03:51:01;37.5;33.0;
56360;PMS7003;42611;51.132;13.588;2023-06-10T03:56:05;39.4;33.7;
56360;PMS7003;42611;51.132;13.588;2023-06-10T04:01:01;39.0;33.5;
56360;PMS7003;42611;51.132;13.588;2023-06-10T04:06:02;39.6;33.8;
56360;PMS7003;42611;51.132;13.588;2023-06-10T04:11:01;39.8;34.1;
56360;PMS7003;42611;51.132;13.588;2023-06-10T04:16:02;40.9;34.6;
56360;PMS7003;42611;51.132;13.588;2023-06-10T04:21:01;40.7;34.6;
56360;PMS7003;42611;51.132;13.588;2023-06-10T04:26:06;41.2;34.9;
56360;PMS7003;42611;51.132;13.588;2023-06-10T04:31:01;40.1;34.2;
56360;PMS7003;42611;51.132;13.588;2023-06-10T04:36:06;40.7;34.7;
56360;PMS7003;42611;51.132;13.588;2023-06-10T04:41:06;41.1;35.0;
56360;PMS7003;42611;51.132;13.588;2023-06-10T04:46:01;41.0;34.8;
56360;PMS7003;42611;51.132;13.588;2023-06-10T04:51:01;41.3;35.0;
56360;PMS7003;42611;51.132;13.588;2023-06-10T04:56:06;41.8;35.5;
56360;PMS7003;42611;51.132;13.588;2023-06-10T05:01:06;42.1;35.7;
56360;PMS7003;42611;51.132;13.588;2023-06-10T05:06:02;42.2;35.7;
56360;PMS7003;42611;51.132;13.588;2023-06-10T05:11:07;43.0;36.2;
56360;PMS7003;42611;51.132;13.588;2023-06-10T05:16:02;42.6;36.2;
56360;PMS7003;42611;51.132;13.588;2023-06-10T05:21:02;43.6;36.7;
56360;PMS7003;42611;51.132;13.588;2023-06-10T05:31:01;43.0;35.9;
56360;PMS7003;42611;51.132;13.588;2023-06-10T05:36:07;42.7;35.6;
56360;PMS7003;42611;51.132;13.588;2023-06-10T05:41:06;43.2;35.9;
56360;PMS7003;42611;51.132;13.588;2023-06-10T05:46:06;41.2;34.8;
56360;PMS7003;42611;51.132;13.588;2023-06-10T05:56:01;41.0;35.1;
56360;PMS7003;42611;51.132;13.588;2023-06-10T06:01:06;39.7;34.4;
56360;PMS7003;42611;51.132;13.588;2023-06-10T06:06:02;37.8;33.2;
56360;PMS7003;42611;51.132;13.588;2023-06-10T06:16:02;37.0;32.6;
56360;PMS7003;42611;51.132;13.588;2023-06-10T06:21:06;36.6;32.1;
56360;PMS7003;42611;51.132;13.588;2023-06-10T06:26:01;37.2;32.5;
56360;PMS7003;42611;51.132;13.588;2023-06-10T06:31:01;36.2;32.1;
56360;PMS7003;42611;51.132;13.588;2023-06-10T06:36:01;35.9;32.0;
56360;PMS7003;42611;51.132;13.588;2023-06-10T06:41:01;34.0;30.8;
56360;PMS7003;42611;51.132;13.588;2023-06-10T06:46:01;33.1;30.5;
56360;PMS7003;42611;51.132;13.588;2023-06-10T06:51:01;31.8;29.9;
56360;PMS7003;42611;51.132;13.588;2023-06-10T06:56:07;31.7;29.6;
56360;PMS7003;42611;51.132;13.588;2023-06-10T07:01:06;30.3;28.2;
56360;PMS7003;42611;51.132;13.588;2023-06-10T07:06:02;28.9;27.0;
56360;PMS7003;42611;51.132;13.588;2023-06-10T07:11:06;25.6;24.2;
56360;PMS7003;42611;51.132;13.588;2023-06-10T07:16:01;22.8;21.9;
56360;PMS7003;42611;51.132;13.588;2023-06-10T07:21:01;21.2;20.7;
56360;PMS7003;42611;51.132;13.588;2023-06-10T07:26:02;21.1;20.6;
56360;PMS7003;42611;51.132;13.588;2023-06-10T07:31:02;21.2;20.6;
56360;PMS7003;42611;51.132;13.588;2023-06-10T07:36:07;22.4;21.0;
56360;PMS7003;42611;51.132;13.588;2023-06-10T07:41:02;24.0;22.4;
56360;PMS7003;42611;51.132;13.588;2023-06-10T07:46:01;24.4;22.6;
56360;PMS7003;42611;51.132;13.588;2023-06-10T07:51:01;23.7;22.4;
56360;PMS7003;42611;51.132;13.588;2023-06-10T07:56:01;25.5;24.0;
56360;PMS7003;42611;51.132;13.588;2023-06-10T08:01:01;24.9;24.2;
56360;PMS7003;42611;51.132;13.588;2023-06-10T08:06:01;22.2;21.4;
56360;PMS7003;42611;51.132;13.588;2023-06-10T08:11:06;20.5;20.0;
56360;PMS7003;42611;51.132;13.588;2023-06-10T08:16:06;20.2;19.4;
56360;PMS7003;42611;51.132;13.588;2023-06-10T08:21:01;18.6;17.9;
56360;PMS7003;42611;51.132;13.588;2023-06-10T08:26:06;18.9;18.3;
56360;PMS7003;42611;51.132;13.588;2023-06-10T08:31:07;19.8;19.1;
56360;PMS7003;42611;51.132;13.588;2023-06-10T08:36:01;20.2;19.5;
56360;PMS7003;42611;51.132;13.588;2023-06-10T08:41:07;20.5;19.7;
56360;PMS7003;42611;51.132;13.588;2023-06-10T08:46:01;19.8;18.8;
56360;PMS7003;42611;51.132;13.588;2023-06-10T08:52:02;20.0;18.8;
56360;PMS7003;42611;51.132;13.588;2023-06-10T08:57:06;20.8;19.6;
56360;PMS7003;42611;51.132;13.588;2023-06-10T09:02:06;20.6;19.4;
56360;PMS7003;42611;51.132;13.588;2023-06-10T09:07:03;20.3;19.0;
56360;PMS7003;42611;51.132;13.588;2023-06-10T09:17:03;18.8;17.8;
56360;PMS7003;42611;51.132;13.588;2023-06-10T09:22:15;18.1;17.2;
56360;PMS7003;42611;51.132;13.588;2023-06-10T09:27:04;18.4;17.4;
56360;PMS7003;42611;51.132;13.588;2023-06-10T09:32:11;16.9;16.4;
56360;PMS7003;42611;51.132;13.588;2023-06-10T09:37:01;16.4;16.1;
56360;PMS7003;42611;51.132;13.588;2023-06-10T09:42:23;16.8;16.2;
56360;PMS7003;42611;51.132;13.588;2023-06-10T09:47:01;16.4;15.6;
56360;PMS7003;42611;51.132;13.588;2023-06-10T09:52:06;15.8;15.2;
56360;PMS7003;42611;51.132;13.588;2023-06-10T09:58:01;16.2;15.5;
56360;PMS7003;42611;51.132;13.588;2023-06-10T10:03:01;15.9;15.2;
56360;PMS7003;42611;51.132;13.588;2023-06-10T10:08:06;15.0;14.8;
56360;PMS7003;42611;51.132;13.588;2023-06-10T10:13:07;14.4;14.4;
56360;PMS7003;42611;51.132;13.588;2023-06-10T10:18:05;13.9;13.7;
56360;PMS7003;42611;51.132;13.588;2023-06-10T10:23:06;14.4;14.2;
56360;PMS7003;42611;51.132;13.588;2023-06-10T10:28:03;14.7;14.5;
56360;PMS7003;42611;51.132;13.588;2023-06-10T10:33:05;15.7;15.2;
56360;PMS7003;42611;51.132;13.588;2023-06-10T10:38:06;16.0;15.6;
56360;PMS7003;42611;51.132;13.588;2023-06-10T10:43:01;16.6;16.0;
56360;PMS7003;42611;51.132;13.588;2023-06-10T10:48:09;17.5;17.0;
56360;PMS7003;42611;51.132;13.588;2023-06-10T10:53:03;18.1;17.6;
56360;PMS7003;42611;51.132;13.588;2023-06-10T10:58:05;19.2;18.7;
56360;PMS7003;42611;51.132;13.588;2023-06-10T11:03:15;19.0;18.5;
56360;PMS7003;42611;51.132;13.588;2023-06-10T11:08:08;20.0;19.8;
56360;PMS7003;42611;51.132;13.588;2023-06-10T11:13:14;20.7;20.0;
56360;PMS7003;42611;51.132;13.588;2023-06-10T11:18:25;21.1;20.2;
56360;PMS7003;42611;51.132;13.588;2023-06-10T11:23:06;20.2;19.5;
56360;PMS7003;42611;51.132;13.588;2023-06-10T11:28:18;21.2;20.5;
56360;PMS7003;42611;51.132;13.588;2023-06-10T11:33:09;20.4;19.6;
56360;PMS7003;42611;51.132;13.588;2023-06-10T11:38:01;19.2;19.0;
56360;PMS7003;42611;51.132;13.588;2023-06-10T11:43:01;19.1;18.7;
56360;PMS7003;42611;51.132;13.588;2023-06-10T11:48:02;18.3;17.9;
56360;PMS7003;42611;51.132;13.588;2023-06-10T11:58:02;19.0;18.5;
56360;PMS7003;42611;51.132;13.588;2023-06-10T12:13:01;19.2;18.7;
56360;PMS7003;42611;51.132;13.588;2023-06-10T12:18:03;18.6;18.0;
56360;PMS7003;42611;51.132;13.588;2023-06-10T12:23:08;18.2;17.9;
56360;PMS7003;42611;51.132;13.588;2023-06-10T12:28:12;19.4;19.1;
56360;PMS7003;42611;51.132;13.588;2023-06-10T12:33:02;18.9;18.8;
56360;PMS7003;42611;51.132;13.588;2023-06-10T12:38:02;19.1;19.0;
56360;PMS7003;42611;51.132;13.588;2023-06-10T12:43:06;19.0;18.9;
56360;PMS7003;42611;51.132;13.588;2023-06-10T12:48:04;19.3;18.8;
56360;PMS7003;42611;51.132;13.588;2023-06-10T12:53:01;17.7;17.2;
56360;PMS7003;42611;51.132;13.588;2023-06-10T12:58:01;17.8;17.1;
56360;PMS7003;42611;51.132;13.588;2023-06-10T13:03:08;18.2;17.5;
56360;PMS7003;42611;51.132;13.588;2023-06-10T13:08:01;19.2;18.3;
56360;PMS7003;42611;51.132;13.588;2023-06-10T13:13:03;17.9;17.6;
56360;PMS7003;42611;51.132;13.588;2023-06-10T13:18:03;18.3;17.9;
56360;PMS7003;42611;51.132;13.588;2023-06-10T13:28:01;17.9;17.6;
56360;PMS7003;42611;51.132;13.588;2023-06-10T13:33:01;16.9;16.8;
56360;PMS7003;42611;51.132;13.588;2023-06-10T13:38:01;18.1;18.0;
56360;PMS7003;42611;51.132;13.588;2023-06-10T13:48:02;18.3;18.3;
56360;PMS7003;42611;51.132;13.588;2023-06-10T13:53:06;18.2;18.0;
56360;PMS7003;42611;51.132;13.588;2023-06-10T13:58:06;19.2;18.8;
56360;PMS7003;42611;51.132;13.588;2023-06-10T14:03:06;19.4;19.0;
56360;PMS7003;42611;51.132;13.588;2023-06-10T14:08:06;20.0;19.5;
56360;PMS7003;42611;51.132;13.588;2023-06-10T14:13:06;20.2;19.4;
56360;PMS7003;42611;51.132;13.588;2023-06-10T14:18:05;19.4;18.8;
56360;PMS7003;42611;51.132;13.588;2023-06-10T14:23:01;18.4;18.0;
56360;PMS7003;42611;51.132;13.588;2023-06-10T14:28:06;16.8;16.4;
56360;PMS7003;42611;51.132;13.588;2023-06-10T14:33:01;15.4;15.0;
56360;PMS7003;42611;51.132;13.588;2023-06-10T14:38:02;13.8;13.8;
56360;PMS7003;42611;51.132;13.588;2023-06-10T14:49:03;13.9;13.9;
56360;PMS7003;42611;51.132;13.588;2023-06-10T14:54:02;13.8;13.8;
56360;PMS7003;42611;51.132;13.588;2023-06-10T14:59:01;13.5;13.5;
56360;PMS7003;42611;51.132;13.588;2023-06-10T15:04:01;14.4;14.4;
56360;PMS7003;42611;51.132;13.588;2023-06-10T15:09:01;14.7;14.7;
56360;PMS7003;42611;51.132;13.588;2023-06-10T15:14:02;14.3;14.2;
56360;PMS7003;42611;51.132;13.588;2023-06-10T15:19:01;15.0;14.9;
56360;PMS7003;42611;51.132;13.588;2023-06-10T15:24:02;16.0;16.0;
56360;PMS7003;42611;51.132;13.588;2023-06-10T15:29:01;15.8;15.6;
56360;PMS7003;42611;51.132;13.588;2023-06-10T15:34:03;16.1;15.8;
56360;PMS7003;42611;51.132;13.588;2023-06-10T15:39:06;16.3;15.9;
56360;PMS7003;42611;51.132;13.588;2023-06-10T15:44:06;16.6;16.2;
56360;PMS7003;42611;51.132;13.588;2023-06-10T15:49:07;16.8;16.0;
56360;PMS7003;42611;51.132;13.588;2023-06-10T15:54:01;17.3;16.8;
56360;PMS7003;42611;51.132;13.588;2023-06-10T15:59:02;18.0;17.2;
56360;PMS7003;42611;51.132;13.588;2023-06-10T16:04:03;18.6;18.0;
56360;PMS7003;42611;51.132;13.588;2023-06-10T16:09:01;19.4;18.9;
56360;PMS7003;42611;51.132;13.588;2023-06-10T16:14:01;19.8;19.4;
56360;PMS7003;42611;51.132;13.588;2023-06-10T16:19:01;19.5;19.2;
56360;PMS7003;42611;51.132;13.588;2023-06-10T16:24:02;19.2;18.9;
56360;PMS7003;42611;51.132;13.588;2023-06-10T16:29:01;19.1;18.8;
56360;PMS7003;42611;51.132;13.588;2023-06-10T16:34:07;17.6;17.3;
56360;PMS7003;42611;51.132;13.588;2023-06-10T16:39:01;17.9;17.6;
56360;PMS7003;42611;51.132;13.588;2023-06-10T16:44:06;17.8;17.6;
56360;PMS7003;42611;51.132;13.588;2023-06-10T16:49:01;18.2;18.2;
56360;PMS7003;42611;51.132;13.588;2023-06-10T16:54:01;18.3;18.3;
56360;PMS7003;42611;51.132;13.588;2023-06-10T16:59:03;19.2;19.2;
56360;PMS7003;42611;51.132;13.588;2023-06-10T17:04:02;19.4;18.8;
56360;PMS7003;42611;51.132;13.588;2023-06-10T17:09:01;20.0;19.2;
56360;PMS7003;42611;51.132;13.588;2023-06-10T17:14:07;20.2;19.0;
56360;PMS7003;42611;51.132;13.588;2023-06-10T17:19:02;20.3;19.1;
56360;PMS7003;42611;51.132;13.588;2023-06-10T17:24:03;21.0;19.6;
56360;PMS7003;42611;51.132;13.588;2023-06-10T17:29:01;21.2;20.3;
56360;PMS7003;42611;51.132;13.588;2023-06-10T17:34:01;21.9;21.2;
56360;PMS7003;42611;51.132;13.588;2023-06-10T17:39:01;21.5;21.2;
56360;PMS7003;42611;51.132;13.588;2023-06-10T17:44:06;24.7;24.0;
56360;PMS7003;42611;51.132;13.588;2023-06-10T17:49:01;26.8;26.0;
56360;PMS7003;42611;51.132;13.588;2023-06-10T17:54:02;26.4;25.4;
56360;PMS7003;42611;51.132;13.588;2023-06-10T17:59:06;26.3;25.2;
56360;PMS7003;42611;51.132;13.588;2023-06-10T18:04:06;27.0;25.9;
56360;PMS7003;42611;51.132;13.588;2023-06-10T18:09:03;25.3;24.5;
56360;PMS7003;42611;51.132;13.588;2023-06-10T18:14:01;23.6;23.2;
56360;PMS7003;42611;51.132;13.588;2023-06-10T18:19:02;24.1;23.8;
56360;PMS7003;42611;51.132;13.588;2023-06-10T18:24:07;23.1;22.9;
56360;PMS7003;42611;51.132;13.588;2023-06-10T18:29:01;22.0;21.8;
56360;PMS7003;42611;51.132;13.588;2023-06-10T18:34:01;21.2;21.1;
56360;PMS7003;42611;51.132;13.588;2023-06-10T18:39:02;21.7;21.2;
56360;PMS7003;42611;51.132;13.588;2023-06-10T18:44:01;23.0;22.2;
56360;PMS7003;42611;51.132;13.588;2023-06-10T18:49:01;24.6;23.8;
56360;PMS7003;42611;51.132;13.588;2023-06-10T18:54:02;27.7;26.4;
56360;PMS7003;42611;51.132;13.588;2023-06-10T18:59:06;31.2;28.8;
56360;PMS7003;42611;51.132;13.588;2023-06-10T19:04:07;32.4;29.9;
56360;PMS7003;42611;51.132;13.588;2023-06-10T19:09:02;31.6;29.3;
56360;PMS7003;42611;51.132;13.588;2023-06-10T19:14:06;33.6;30.6;
56360;PMS7003;42611;51.132;13.588;2023-06-10T19:19:06;34.3;31.1;
56360;PMS7003;42611;51.132;13.588;2023-06-10T19:24:06;34.9;31.7;
56360;PMS7003;42611;51.132;13.588;2023-06-10T19:29:01;35.0;31.9;
56360;PMS7003;42611;51.132;13.588;2023-06-10T19:34:06;34.8;31.5;
56360;PMS7003;42611;51.132;13.588;2023-06-10T19:39:02;35.9;31.9;
56360;PMS7003;42611;51.132;13.588;2023-06-10T19:44:02;38.2;33.4;
56360;PMS7003;42611;51.132;13.588;2023-06-10T19:49:01;39.4;34.0;
56360;PMS7003;42611;51.132;13.588;2023-06-10T19:54:01;41.3;35.2;
56360;PMS7003;42611;51.132;13.588;2023-06-10T19:59:07;44.6;37.6;
56360;PMS7003;42611;51.132;13.588;2023-06-10T20:04:07;42.2;36.0;
56360;PMS7003;42611;51.132;13.588;2023-06-10T20:09:06;40.7;34.8;
56360;PMS7003;42611;51.132;13.588;2023-06-10T20:14:03;40.3;34.8;
56360;PMS7003;42611;51.132;13.588;2023-06-10T20:19:01;42.0;35.7;
56360;PMS7003;42611;51.132;13.588;2023-06-10T20:24:06;42.8;36.3;
56360;PMS7003;42611;51.132;13.588;2023-06-10T20:29:07;43.7;37.3;
56360;PMS7003;42611;51.132;13.588;2023-06-10T20:34:01;43.4;37.2;
56360;PMS7003;42611;51.132;13.588;2023-06-10T20:39:01;40.8;35.3;
56360;PMS7003;42611;51.132;13.588;2023-06-10T20:44:01;37.7;33.2;
56360;PMS7003;42611;51.132;13.588;2023-06-10T20:49:06;35.5;31.8;
56360;PMS7003;42611;51.132;13.588;2023-06-10T20:59:01;33.4;30.6;
56360;PMS7003;42611;51.132;13.588;2023-06-10T21:04:06;33.5;30.7;
56360;PMS7003;42611;51.132;13.588;2023-06-10T21:09:03;32.4;30.4;
56360;PMS7003;42611;51.132;13.588;2023-06-10T21:14:01;32.2;30.3;
56360;PMS7003;42611;51.132;13.588;2023-06-10T21:19:02;32.1;30.0;
56360;PMS7003;42611;51.132;13.588;2023-06-10T21:24:01;32.3;29.9;
56360;PMS7003;42611;51.132;13.588;2023-06-10T21:29:06;31.8;29.3;
56360;PMS7003;42611;51.132;13.588;2023-06-10T21:35:06;31.2;28.4;
56360;PMS7003;42611;51.132;13.588;2023-06-10T21:40:01;29.3;27.0;
56360;PMS7003;42611;51.132;13.588;2023-06-10T21:45:07;26.4;25.0;
56360;PMS7003;42611;51.132;13.588;2023-06-10T21:50:02;24.3;23.0;
56360;PMS7003;42611;51.132;13.588;2023-06-10T21:55:06;22.0;21.1;
56360;PMS7003;42611;51.132;13.588;2023-06-10T22:00:05;21.2;20.5;
56360;PMS7003;42611;51.132;13.588;2023-06-10T22:05:01;21.6;20.8;
56360;PMS7003;42611;51.132;13.588;2023-06-10T22:10:05;22.8;21.4;
56360;PMS7003;42611;51.132;13.588;2023-06-10T22:15:02;23.3;22.1;
56360;PMS7003;42611;51.132;13.588;2023-06-10T22:20:03;24.3;23.3;
56360;PMS7003;42611;51.132;13.588;2023-06-10T22:25:06;24.8;23.6;
56360;PMS7003;42611;51.132;13.588;2023-06-10T22:31:01;25.0;23.7;
56360;PMS7003;42611;51.132;13.588;2023-06-10T22:36:06;24.6;23.8;
56360;PMS7003;42611;51.132;13.588;2023-06-10T22:41:01;26.0;24.4;
56360;PMS7003;42611;51.132;13.588;2023-06-10T22:46:02;25.0;23.2;
56360;PMS7003;42611;51.132;13.588;2023-06-10T22:51:06;24.8;23.4;
56360;PMS7003;42611;51.132;13.588;2023-06-10T22:56:02;25.4;23.5;
56360;PMS7003;42611;51.132;13.588;2023-06-10T23:01:08;25.9;23.8;
56360;PMS7003;42611;51.132;13.588;2023-06-10T23:06:06;25.2;23.7;
56360;PMS7003;42611;51.132;13.588;2023-06-10T23:11:01;26.4;25.2;
56360;PMS7003;42611;51.132;13.588;2023-06-10T23:16:07;26.5;25.3;
56360;PMS7003;42611;51.132;13.588;2023-06-10T23:21:01;23.9;23.4;
56360;PMS7003;42611;51.132;13.588;2023-06-10T23:26:02;23.0;22.6;
56360;PMS7003;42611;51.132;13.588;2023-06-10T23:31:01;20.9;20.6;
56360;PMS7003;42611;51.132;13.588;2023-06-10T23:36:06;20.0;19.7;
56360;PMS7003;42611;51.132;13.588;2023-06-10T23:41:06;18.7;18.2;
56360;PMS7003;42611;51.132;13.588;2023-06-10T23:46:01;19.7;19.4;
56360;PMS7003;42611;51.132;13.588;2023-06-10T23:51:01;19.9;19.6;
56360;PMS7003;42611;51.132;13.588;2023-06-10T23:56:01;21.5;21.4;
